Time;durP1;ratioP1;P1;durP2;ratioP2;P2;SDS_P1;SDS_P2;PMS_P1;PMS_P2;Temp;Humidity;BMP_temperature;BMP_pressure;BME280_temperature;BME280_humidity;BME280_pressure;Samples;Min_cycle;Max_cycle;Signal;HPM_P1;HPM_P2
2022/08/10 00:01:34;;;;;;;3.77;1.03;;;20.70;99.90;;;;;;5096191;28;20201;-73
2022/08/10 00:04:00;;;;;;;1.47;1.30;;;20.70;99.90;;;;;;5095825;28;20544;-72
2022/08/10 00:06:26;;;;;;;4.17;1.60;;;20.60;99.90;;;;;;5095795;28;20212;-72
2022/08/10 00:08:53;;;;;;;2.30;1.73;;;20.60;99.90;;;;;;5095673;28;20205;-72
2022/08/10 00:11:18;;;;;;;2.97;2.00;;;20.50;99.90;;;;;;5095770;28;20203;-72
2022/08/10 00:13:44;;;;;;;1.97;1.57;;;20.40;99.90;;;;;;5095753;28;20162;-73
2022/08/10 00:16:10;;;;;;;1.60;1.50;;;20.30;99.90;;;;;;5095819;28;20181;-71
2022/08/10 00:18:36;;;;;;;1.30;1.20;;;20.40;99.90;;;;;;5097964;28;20170;-74
2022/08/10 00:21:06;;;;;;;4.20;1.73;;;20.30;99.90;;;;;;5099645;28;20482;-73
2022/08/10 00:23:32;;;;;;;4.00;1.83;;;20.30;99.90;;;;;;5099752;28;20536;-74
2022/08/10 00:25:58;;;;;;;1.90;1.47;;;20.30;99.90;;;;;;5099780;28;20189;-73
2022/08/10 00:28:24;;;;;;;2.27;1.47;;;20.30;99.90;;;;;;5099692;28;20566;-71
2022/08/10 00:30:50;;;;;;;1.40;1.30;;;20.20;99.90;;;;;;5099641;28;20230;-72
2022/08/10 00:33:16;;;;;;;2.13;1.50;;;20.20;99.90;;;;;;5099802;28;20178;-71
2022/08/10 00:35:42;;;;;;;5.97;1.30;;;20.10;99.90;;;;;;5099327;28;20178;-73
2022/08/10 00:38:08;;;;;;;4.87;1.60;;;20.10;99.90;;;;;;5099615;28;20167;-71
2022/08/10 00:40:33;;;;;;;9.10;1.87;;;20.10;99.90;;;;;;5099580;28;20170;-73
2022/08/10 00:42:59;;;;;;;2.17;1.67;;;20.00;99.90;;;;;;5099545;28;20174;-74
2022/08/10 00:45:25;;;;;;;2.13;1.40;;;19.90;99.90;;;;;;5099454;28;20170;-73
2022/08/10 00:47:51;;;;;;;1.93;1.80;;;19.80;99.90;;;;;;5099360;28;20201;-72
2022/08/10 00:50:17;;;;;;;1.90;1.80;;;19.60;99.90;;;;;;5098994;28;20300;-72
2022/08/10 00:52:45;;;;;;;3.17;1.63;;;19.60;99.90;;;;;;5099343;28;20187;-72
2022/08/10 00:55:10;;;;;;;2.50;1.20;;;19.30;99.90;;;;;;5099244;28;20194;-71
2022/08/10 00:57:38;;;;;;;3.30;1.63;;;19.30;99.90;;;;;;5099349;28;20230;-72
2022/08/10 01:00:05;;;;;;;1.57;1.47;;;19.10;99.90;;;;;;5099019;28;20269;-71
2022/08/10 01:02:32;;;;;;;1.63;1.53;;;18.50;99.90;;;;;;5098198;28;20223;-73
2022/08/10 01:05:09;;;;;;;1.90;1.67;;;18.60;99.90;;;;;;5098846;28;20198;-71
2022/08/10 01:08:09;;;;;;;10.20;2.23;;;18.70;99.90;;;;;;5099070;28;20174;-72
2022/08/10 01:10:43;;;;;;;3.43;1.63;;;19.30;99.90;;;;;;5098931;28;20229;-71
2022/08/10 01:13:30;;;;;;;1.80;1.33;;;19.40;99.90;;;;;;5097902;28;20179;-72
2022/08/10 01:16:01;;;;;;;2.03;1.53;;;19.40;99.90;;;;;;5098837;28;20247;-72
2022/08/10 01:18:55;;;;;;;5.03;3.00;;;19.30;99.90;;;;;;5098654;28;20562;-71
2022/08/10 01:21:59;;;;;;;3.53;1.97;;;19.40;99.90;;;;;;5097594;28;20258;-71
2022/08/10 01:24:53;;;;;;;1.57;1.43;;;19.20;99.90;;;;;;5059804;28;20237;-74
2022/08/10 01:27:25;;;;;;;3.93;1.53;;;19.20;99.90;;;;;;5098254;28;20189;-74
2022/08/10 01:30:05;;;;;;;6.40;2.40;;;19.30;99.90;;;;;;5097341;28;20209;-73
2022/08/10 01:32:53;;;;;;;1.80;1.70;;;19.40;99.90;;;;;;5098511;28;20159;-74
2022/08/10 01:35:21;;;;;;;2.27;1.53;;;19.40;99.90;;;;;;5098459;28;20159;-77
2022/08/10 01:38:01;;;;;;;6.13;3.00;;;19.40;99.90;;;;;;5098576;28;20159;-76
2022/08/10 01:40:30;;;;;;;2.27;2.17;;;19.40;99.90;;;;;;5098331;28;20171;-74
2022/08/10 01:42:58;;;;;;;4.10;2.43;;;19.40;99.90;;;;;;5098525;28;20163;-73
2022/08/10 01:45:25;;;;;;;2.63;1.60;;;19.40;99.90;;;;;;5098265;28;20174;-77
2022/08/10 01:50:44;;;;;;;3.00;1.23;;;19.30;99.90;;;;;;5098116;28;20248;-76
2022/08/10 01:53:19;;;;;;;6.30;1.53;;;19.30;99.90;;;;;;5098118;28;20273;-71
2022/08/10 01:55:46;;;;;;;1.80;1.70;;;19.20;99.90;;;;;;5098071;28;20512;-76
2022/08/10 01:58:16;;;;;;;2.17;1.97;;;19.20;99.90;;;;;;5096911;28;20186;-75
2022/08/10 02:00:44;;;;;;;1.70;1.50;;;19.20;99.90;;;;;;5097909;28;20180;-74
2022/08/10 02:03:11;;;;;;;2.77;1.20;;;19.20;99.90;;;;;;5097847;28;20171;-73
2022/08/10 02:05:41;;;;;;;2.80;1.70;;;19.10;99.90;;;;;;5097655;28;20166;-74
2022/08/10 02:08:11;;;;;;;2.20;1.10;;;19.20;99.90;;;;;;5096643;28;20558;-74
2022/08/10 02:10:39;;;;;;;2.63;2.40;;;19.10;99.90;;;;;;5096733;28;20209;-74
2022/08/10 02:13:07;;;;;;;4.03;1.60;;;19.00;99.90;;;;;;5097843;28;20584;-72
2022/08/10 02:15:36;;;;;;;2.63;1.77;;;19.00;99.90;;;;;;5097553;28;20212;-74
2022/08/10 02:18:05;;;;;;;3.40;2.27;;;19.00;99.90;;;;;;5097456;28;20216;-74
2022/08/10 02:20:50;;;;;;;1.77;1.67;;;18.90;99.90;;;;;;5097790;28;20511;-76
2022/08/10 02:23:27;;;;;;;2.97;2.10;;;18.80;99.90;;;;;;5097598;28;20201;-76
2022/08/10 02:25:55;;;;;;;1.73;1.60;;;18.80;99.90;;;;;;5097553;28;20167;-73
2022/08/10 02:28:24;;;;;;;2.03;1.93;;;18.70;99.90;;;;;;5096298;28;20183;-73
2022/08/10 02:30:53;;;;;;;4.17;1.50;;;18.70;99.90;;;;;;5097167;28;20209;-75
2022/08/10 02:33:20;;;;;;;5.10;2.27;;;18.70;99.90;;;;;;5097377;28;20167;-77
2022/08/10 02:35:47;;;;;;;3.80;1.73;;;18.70;99.90;;;;;;5097335;28;20262;-73
2022/08/10 02:38:17;;;;;;;3.60;2.10;;;18.70;99.90;;;;;;5097055;28;20162;-71
2022/08/10 02:40:47;;;;;;;2.70;1.73;;;18.60;99.90;;;;;;5097139;28;20163;-74
2022/08/10 02:43:36;;;;;;;2.10;1.90;;;18.60;99.90;;;;;;5097039;28;20868;-73
2022/08/10 02:46:14;;;;;;;2.73;2.53;;;18.50;99.90;;;;;;5097016;28;20167;-72
2022/08/10 02:48:58;;;;;;;2.00;1.87;;;18.50;99.90;;;;;;5097061;28;20171;-74
2022/08/10 02:51:46;;;;;;;2.27;2.07;;;18.40;99.90;;;;;;5096963;28;20289;-73
2022/08/10 02:54:19;;;;;;;6.33;2.60;;;18.40;99.90;;;;;;5092681;28;20201;-76
2022/08/10 02:57:09;;;;;;;2.30;2.10;;;18.30;99.90;;;;;;5096904;28;20250;-76
2022/08/10 02:59:41;;;;;;;2.30;2.10;;;18.40;99.90;;;;;;5096486;28;20616;-74
2022/08/10 03:02:12;;;;;;;5.70;2.57;;;18.40;99.90;;;;;;5095727;28;20178;-77
2022/08/10 03:04:45;;;;;;;4.80;1.87;;;18.30;99.90;;;;;;5096969;28;20162;-75
2022/08/10 03:07:15;;;;;;;2.50;2.30;;;18.30;99.90;;;;;;5096679;28;20170;-73
2022/08/10 03:09:43;;;;;;;4.87;2.43;;;18.30;99.90;;;;;;5096591;28;20209;-78
2022/08/10 03:12:12;;;;;;;4.23;2.00;;;18.30;99.90;;;;;;5096449;28;20163;-71
2022/08/10 03:14:39;;;;;;;2.93;2.73;;;18.20;99.90;;;;;;5096584;28;20562;-74
2022/08/10 03:17:06;;;;;;;3.20;1.97;;;18.20;99.90;;;;;;5096568;28;20185;-73
2022/08/10 03:19:33;;;;;;;8.63;1.90;;;18.20;99.90;;;;;;5096486;28;20178;-76
2022/08/10 03:22:01;;;;;;;3.70;2.13;;;18.20;99.90;;;;;;5096511;28;20167;-74
2022/08/10 03:24:29;;;;;;;2.60;2.03;;;18.10;99.90;;;;;;5096411;28;20174;-73
2022/08/10 03:26:56;;;;;;;5.30;2.97;;;18.10;99.90;;;;;;5096387;28;20569;-73
2022/08/10 03:29:23;;;;;;;3.47;2.10;;;18.10;99.90;;;;;;5095949;28;20174;-74
2022/08/10 03:31:50;;;;;;;2.60;2.40;;;18.10;99.90;;;;;;5096404;28;20613;-72
2022/08/10 03:34:18;;;;;;;11.27;5.23;;;18.10;99.90;;;;;;5096319;28;20191;-74
2022/08/10 03:36:44;;;;;;;5.23;3.33;;;18.10;99.90;;;;;;5096226;28;20163;-72
2022/08/10 03:39:11;;;;;;;3.33;1.93;;;18.10;99.90;;;;;;5096254;28;20217;-73
2022/08/10 03:41:42;;;;;;;2.80;2.27;;;18.00;99.90;;;;;;5096285;28;20258;-73
2022/08/10 03:44:11;;;;;;;2.17;2.07;;;18.00;99.90;;;;;;5095919;28;20190;-73
2022/08/10 03:46:41;;;;;;;2.73;2.53;;;18.00;99.90;;;;;;5095134;28;20170;-74
2022/08/10 03:49:10;;;;;;;2.23;2.03;;;18.00;99.90;;;;;;5096061;28;20190;-71
2022/08/10 03:51:36;;;;;;;4.40;2.63;;;18.00;99.90;;;;;;5095880;28;20494;-75
2022/08/10 03:54:03;;;;;;;3.03;2.83;;;18.00;99.90;;;;;;5095240;28;20175;-74
2022/08/10 03:56:30;;;;;;;3.37;2.00;;;18.00;99.90;;;;;;5094998;28;20194;-75
2022/08/10 03:58:56;;;;;;;2.10;2.00;;;18.00;99.90;;;;;;5095477;28;20228;-76
2022/08/10 04:01:23;;;;;;;2.90;2.80;;;18.00;99.90;;;;;;5095727;28;20186;-73
2022/08/10 04:03:49;;;;;;;3.40;3.03;;;17.90;99.90;;;;;;5095901;28;20175;-73
2022/08/10 04:06:14;;;;;;;2.57;2.37;;;17.80;99.90;;;;;;5095835;28;20259;-72
2022/08/10 04:08:43;;;;;;;4.57;2.97;;;17.80;99.90;;;;;;5095738;28;20182;-73
2022/08/10 04:11:10;;;;;;;2.80;2.60;;;17.70;99.90;;;;;;5095803;28;20255;-73
2022/08/10 04:13:37;;;;;;;4.13;2.73;;;17.70;99.90;;;;;;5095434;28;20171;-73
2022/08/10 04:16:04;;;;;;;3.03;2.73;;;17.70;99.90;;;;;;5095701;28;20167;-76
2022/08/10 04:18:31;;;;;;;5.67;3.07;;;17.70;99.90;;;;;;5095662;28;20181;-73
2022/08/10 04:21:14;;;;;;;3.70;2.37;;;17.60;99.90;;;;;;5095762;28;20446;-74
2022/08/10 04:23:43;;;;;;;2.27;2.17;;;17.60;99.90;;;;;;5095606;28;20171;-73
2022/08/10 04:26:10;;;;;;;3.27;2.97;;;17.50;99.90;;;;;;5094341;28;20175;-71
2022/08/10 04:28:37;;;;;;;3.10;2.30;;;17.50;99.90;;;;;;5095476;28;20589;-71
2022/08/10 04:31:06;;;;;;;3.63;3.43;;;17.40;99.90;;;;;;5095629;28;20282;-74
2022/08/10 04:33:33;;;;;;;5.00;3.00;;;17.40;99.90;;;;;;5095601;28;20194;-72
2022/08/10 04:36:02;;;;;;;4.80;3.77;;;17.30;99.90;;;;;;5094332;28;20232;-72
2022/08/10 04:38:29;;;;;;;3.20;2.90;;;17.30;99.90;;;;;;5095605;28;20171;-73
2022/08/10 04:40:55;;;;;;;2.67;2.50;;;17.20;99.90;;;;;;5095238;28;20171;-72
2022/08/10 04:43:21;;;;;;;3.80;3.00;;;17.40;99.90;;;;;;5095617;28;20171;-71
2022/08/10 04:45:47;;;;;;;4.37;2.60;;;17.20;99.90;;;;;;5095446;28;20597;-74
2022/08/10 04:48:12;;;;;;;4.97;3.47;;;17.20;99.90;;;;;;5095312;28;20182;-71
2022/08/10 04:50:38;;;;;;;3.07;2.67;;;17.10;99.90;;;;;;5095536;28;20202;-75
2022/08/10 04:53:04;;;;;;;2.93;2.73;;;17.20;99.90;;;;;;5095533;28;20274;-77
2022/08/10 04:55:30;;;;;;;3.80;2.97;;;17.20;99.90;;;;;;5094965;28;20178;-74
2022/08/10 04:57:56;;;;;;;3.20;2.60;;;17.20;99.90;;;;;;5095276;28;20224;-78
2022/08/10 05:00:21;;;;;;;5.67;3.50;;;17.20;99.90;;;;;;5095373;28;20194;-72
2022/08/10 05:02:47;;;;;;;4.57;2.63;;;17.10;99.90;;;;;;5095378;28;20175;-75
2022/08/10 05:05:12;;;;;;;3.67;2.60;;;17.10;99.90;;;;;;5097199;28;20171;-73
2022/08/10 05:07:38;;;;;;;3.20;3.00;;;17.00;99.90;;;;;;5097847;28;20181;-71
2022/08/10 05:10:04;;;;;;;3.50;2.63;;;16.90;99.90;;;;;;5098672;28;20220;-73
2022/08/10 05:12:31;;;;;;;4.50;4.03;;;16.60;99.90;;;;;;5098959;28;20174;-74
2022/08/10 05:14:57;;;;;;;5.80;2.43;;;16.40;99.90;;;;;;5098961;28;20163;-71
2022/08/10 05:17:23;;;;;;;4.87;3.50;;;16.30;99.90;;;;;;5098785;28;20527;-72
2022/08/10 05:19:49;;;;;;;3.80;3.00;;;16.10;99.90;;;;;;5098752;28;20174;-74
2022/08/10 05:22:14;;;;;;;3.37;2.90;;;16.10;99.90;;;;;;5098709;28;20167;-72
2022/08/10 05:24:40;;;;;;;4.13;2.90;;;16.00;99.90;;;;;;5098546;28;20592;-74
2022/08/10 05:27:07;;;;;;;5.33;3.57;;;16.00;99.90;;;;;;5098607;28;20202;-77
2022/08/10 05:29:33;;;;;;;5.27;4.37;;;16.10;99.90;;;;;;5097541;28;20178;-71
2022/08/10 05:31:59;;;;;;;3.90;3.40;;;16.10;99.90;;;;;;5098408;28;20213;-71
2022/08/10 05:34:28;;;;;;;6.60;3.27;;;16.20;99.90;;;;;;5098544;28;20189;-71
2022/08/10 05:36:55;;;;;;;5.47;3.77;;;16.30;99.90;;;;;;5098448;28;20166;-72
2022/08/10 05:39:22;;;;;;;3.37;3.13;;;16.40;99.90;;;;;;5098248;28;20191;-71
2022/08/10 05:41:53;;;;;;;7.23;3.43;;;16.40;99.90;;;;;;5098418;28;20175;-72
2022/08/10 05:44:23;;;;;;;3.60;3.30;;;16.60;99.90;;;;;;5098377;28;20179;-72
2022/08/10 05:46:49;;;;;;;3.00;2.67;;;16.70;99.90;;;;;;5098133;28;20250;-71
2022/08/10 05:49:15;;;;;;;3.23;2.93;;;16.80;99.90;;;;;;5098440;28;20175;-75
2022/08/10 05:51:42;;;;;;;3.37;3.17;;;16.90;99.90;;;;;;5096961;28;20206;-76
2022/08/10 05:54:13;;;;;;;4.13;3.67;;;17.00;99.90;;;;;;5091014;28;20205;-74
2022/08/10 05:56:44;;;;;;;3.63;3.43;;;17.10;99.90;;;;;;5097253;28;20189;-76
2022/08/10 05:59:12;;;;;;;4.40;4.10;;;17.30;99.90;;;;;;5094987;28;20578;-70
2022/08/10 06:01:43;;;;;;;4.27;3.60;;;17.30;99.90;;;;;;5096692;28;20187;-74
2022/08/10 06:04:12;;;;;;;4.13;3.67;;;17.60;99.90;;;;;;5094791;28;20182;-73
2022/08/10 06:06:39;;;;;;;7.47;3.70;;;17.60;99.90;;;;;;5097234;28;20271;-70
2022/08/10 06:09:07;;;;;;;4.43;3.70;;;17.60;99.90;;;;;;5096017;28;20184;-71
2022/08/10 06:11:36;;;;;;;5.07;3.87;;;17.60;99.90;;;;;;5096294;28;20194;-71
2022/08/10 06:16:49;;;;;;;4.77;4.47;;;17.90;99.90;;;;;;5096764;28;20213;-71
2022/08/10 06:19:15;;;;;;;4.30;4.00;;;18.00;99.90;;;;;;5097375;28;20566;-74
2022/08/10 06:21:43;;;;;;;5.33;4.03;;;18.20;99.90;;;;;;5097279;28;20636;-72
2022/08/10 06:24:10;;;;;;;3.77;3.50;;;18.40;99.90;;;;;;5097303;28;20170;-70
2022/08/10 06:26:36;;;;;;;5.07;4.67;;;18.60;99.90;;;;;;5097486;28;20213;-73
2022/08/10 06:29:09;;;;;;;4.37;3.80;;;18.60;99.90;;;;;;5097688;28;20179;-72
2022/08/10 06:31:41;;;;;;;6.93;4.13;;;18.60;99.90;;;;;;5097399;28;20628;-71
2022/08/10 06:34:09;;;;;;;7.80;4.43;;;18.60;99.90;;;;;;5097494;28;20203;-71
2022/08/10 06:36:38;;;;;;;4.87;4.47;;;18.70;99.90;;;;;;5096902;28;20864;-74
2022/08/10 06:39:05;;;;;;;4.47;3.93;;;18.70;99.90;;;;;;5097407;28;20171;-75
2022/08/10 06:41:34;;;;;;;4.23;3.83;;;18.70;99.90;;;;;;5097254;28;20251;-72
2022/08/10 06:44:05;;;;;;;5.00;4.60;;;18.70;99.90;;;;;;5097312;28;20614;-72
2022/08/10 06:46:36;;;;;;;4.30;4.00;;;18.60;99.90;;;;;;5097099;28;20203;-74
2022/08/10 06:49:05;;;;;;;4.47;4.03;;;18.10;99.90;;;;;;5097115;28;20178;-73
2022/08/10 06:51:34;;;;;;;5.57;5.07;;;19.00;99.90;;;;;;5096683;28;20194;-72
2022/08/10 06:54:06;;;;;;;8.17;3.83;;;19.00;99.90;;;;;;5097101;28;20175;-71
2022/08/10 06:56:35;;;;;;;3.90;3.60;;;19.20;99.90;;;;;;5096909;28;20253;-72
2022/08/10 06:59:09;;;;;;;5.30;4.03;;;19.30;99.90;;;;;;5096700;28;20182;-73
2022/08/10 07:01:38;;;;;;;5.53;3.77;;;19.30;99.90;;;;;;5096970;28;20512;-75
2022/08/10 07:04:21;;;;;;;4.07;3.87;;;19.40;99.90;;;;;;5096870;28;20206;-70
2022/08/10 07:06:48;;;;;;;3.63;3.40;;;19.40;99.90;;;;;;5096671;28;20182;-73
2022/08/10 07:09:16;;;;;;;4.67;3.70;;;19.40;99.90;;;;;;5096921;28;20537;-77
2022/08/10 07:11:47;;;;;;;5.17;4.63;;;19.60;99.90;;;;;;5096578;28;20190;-73
2022/08/10 07:14:15;;;;;;;4.57;4.17;;;19.70;99.90;;;;;;5096838;28;20469;-70
2022/08/10 07:16:43;;;;;;;5.13;4.43;;;19.70;99.90;;;;;;5096570;28;20171;-71
2022/08/10 07:19:10;;;;;;;5.73;4.30;;;19.70;99.90;;;;;;5096462;28;20201;-72
2022/08/10 07:21:41;;;;;;;4.40;3.83;;;19.70;99.90;;;;;;5096228;28;20170;-71
2022/08/10 07:24:13;;;;;;;4.13;3.77;;;19.80;99.90;;;;;;5096487;28;20171;-72
2022/08/10 07:26:47;;;;;;;8.63;3.90;;;19.80;99.90;;;;;;5092404;28;20210;-71
2022/08/10 07:29:17;;;;;;;5.97;3.73;;;19.80;99.90;;;;;;5094472;28;20181;-71
2022/08/10 07:31:43;;;;;;;4.53;3.63;;;19.70;99.90;;;;;;5096049;28;20597;-73
2022/08/10 07:34:13;;;;;;;5.97;3.43;;;19.90;99.90;;;;;;5096149;28;20174;-72
2022/08/10 07:36:41;;;;;;;4.23;3.93;;;19.90;99.90;;;;;;5095796;28;20223;-71
2022/08/10 07:39:10;;;;;;;3.40;3.20;;;20.00;99.90;;;;;;5096106;28;20548;-72
2022/08/10 07:41:41;;;;;;;4.97;4.03;;;20.00;99.90;;;;;;5094819;28;20209;-70
2022/08/10 07:44:09;;;;;;;7.47;4.40;;;19.80;99.90;;;;;;5095888;28;20692;-72
2022/08/10 07:46:42;;;;;;;3.57;3.27;;;20.60;99.90;;;;;;5095944;28;20170;-72
2022/08/10 07:49:16;;;;;;;5.77;2.97;;;20.70;99.90;;;;;;5095575;28;20170;-72
2022/08/10 07:51:42;;;;;;;4.97;2.87;;;20.80;99.90;;;;;;5095522;28;20205;-71
2022/08/10 07:54:14;;;;;;;4.83;4.47;;;20.80;99.90;;;;;;5095832;28;20167;-72
2022/08/10 07:56:44;;;;;;;4.90;3.27;;;20.10;99.90;;;;;;5095311;28;20175;-72
2022/08/10 07:59:17;;;;;;;6.40;3.60;;;21.10;99.90;;;;;;5095489;28;20281;-70
2022/08/10 08:01:50;;;;;;;14.17;4.10;;;21.20;99.90;;;;;;5095316;28;20181;-72
2022/08/10 08:04:18;;;;;;;7.80;4.00;;;21.30;99.90;;;;;;5095653;28;20182;-69
2022/08/10 08:06:45;;;;;;;5.67;4.53;;;21.30;99.90;;;;;;5095691;28;20167;-72
2022/08/10 08:09:11;;;;;;;6.23;3.47;;;21.30;99.90;;;;;;5095619;28;20166;-71
2022/08/10 08:11:42;;;;;;;7.50;4.30;;;21.20;99.90;;;;;;5095524;28;20221;-72
2022/08/10 08:14:08;;;;;;;4.80;3.60;;;21.80;99.90;;;;;;5095386;28;20175;-72
2022/08/10 08:16:37;;;;;;;5.33;2.90;;;20.70;99.90;;;;;;5095447;28;20246;-71
2022/08/10 08:19:03;;;;;;;4.60;3.30;;;17.80;99.90;;;;;;5095396;28;20162;-71
2022/08/10 08:21:30;;;;;;;3.40;3.10;;;17.20;99.90;;;;;;5094339;28;20533;-71
2022/08/10 08:23:56;;;;;;;4.67;3.23;;;17.20;99.90;;;;;;5095466;28;20545;-72
2022/08/10 08:26:24;;;;;;;5.17;3.37;;;17.90;99.90;;;;;;5092825;28;20170;-70
2022/08/10 08:28:51;;;;;;;3.67;3.37;;;17.10;99.90;;;;;;5075407;28;20183;-70
2022/08/10 08:31:18;;;;;;;4.27;3.33;;;22.20;99.90;;;;;;5074195;28;20556;-70
2022/08/10 08:33:45;;;;;;;5.50;3.20;;;22.30;99.90;;;;;;5074960;28;20167;-69
2022/08/10 08:36:15;;;;;;;4.03;3.10;;;22.30;99.90;;;;;;5074817;28;20719;-70
2022/08/10 08:38:42;;;;;;;3.00;2.57;;;22.40;99.90;;;;;;5075440;28;20187;-70
2022/08/10 08:41:26;;;;;;;3.93;3.37;;;22.10;99.90;;;;;;5079097;28;20236;-70
2022/08/10 08:44:08;;;;;;;4.27;3.00;;;21.10;99.90;;;;;;5078615;28;20176;-70
2022/08/10 08:47:04;;;;;;;3.97;2.90;;;19.40;99.90;;;;;;5079065;28;20190;-71
2022/08/10 08:49:59;;;;;;;7.33;3.57;;;22.30;99.90;;;;;;5078744;28;20590;-72
2022/08/10 08:52:52;;;;;;;5.00;3.77;;;22.30;99.90;;;;;;5078049;28;20219;-69
2022/08/10 08:55:51;;;;;;;7.07;3.17;;;22.20;99.90;;;;;;5078901;28;20172;-70
2022/08/10 08:58:34;;;;;;;11.10;3.37;;;21.90;99.90;;;;;;5078062;28;20301;-72
2022/08/10 09:01:24;;;;;;;4.33;2.73;;;23.30;99.90;;;;;;5096752;28;20182;-70
2022/08/10 09:04:12;;;;;;;5.60;2.97;;;23.40;99.90;;;;;;5098767;28;20266;-70
2022/08/10 09:06:53;;;;;;;3.63;2.90;;;23.40;99.90;;;;;;5098633;28;20194;-73
2022/08/10 09:09:25;;;;;;;4.90;2.80;;;22.80;99.90;;;;;;5098963;28;20224;-70
2022/08/10 09:12:32;;;;;;;8.43;3.50;;;23.50;99.90;;;;;;5096958;28;20541;-70
2022/08/10 09:15:26;;;;;;;3.87;3.03;;;23.50;99.90;;;;;;5090554;28;20240;-71
2022/08/10 09:18:03;;;;;;;4.93;3.40;;;23.40;99.90;;;;;;5098208;28;20167;-69
2022/08/10 09:20:38;;;;;;;5.40;3.27;;;23.40;99.90;;;;;;5098730;28;20232;-72
2022/08/10 09:23:23;;;;;;;4.60;3.90;;;23.30;99.90;;;;;;5098339;28;20569;-71
2022/08/10 09:26:11;;;;;;;5.33;2.83;;;23.30;99.90;;;;;;5098388;28;20267;-70
2022/08/10 09:28:40;;;;;;;4.17;2.87;;;22.90;99.90;;;;;;5098460;28;20189;-71
2022/08/10 09:31:09;;;;;;;4.20;3.37;;;21.00;99.90;;;;;;5097133;28;20619;-74
2022/08/10 09:34:12;;;;;;;4.50;3.20;;;24.50;99.90;;;;;;5098318;28;20572;-71
2022/08/10 09:37:07;;;;;;;6.10;3.83;;;24.50;99.80;;;;;;5098237;28;20198;-71
2022/08/10 09:39:43;;;;;;;2.67;2.27;;;24.30;99.40;;;;;;5097617;28;20159;-71
2022/08/10 09:42:16;;;;;;;2.80;2.60;;;23.90;98.40;;;;;;5098231;28;20250;-71
2022/08/10 09:44:43;;;;;;;4.70;2.87;;;3.50;92.70;;;;;;5098298;28;20570;-74
2022/08/10 09:47:39;;;;;;;4.27;3.97;;;25.20;98.90;;;;;;5097954;28;20163;-71
2022/08/10 09:50:11;;;;;;;4.60;2.50;;;25.30;99.30;;;;;;5097442;28;20178;-71
2022/08/10 09:53:04;;;;;;;3.17;2.97;;;25.20;98.70;;;;;;5097762;28;20193;-70
2022/08/10 09:56:04;;;;;;;7.87;2.97;;;25.20;99.30;;;;;;5098030;28;20181;-72
2022/08/10 09:58:49;;;;;;;4.40;2.73;;;25.10;98.50;;;;;;5097418;28;20194;-73
2022/08/10 10:01:31;;;;;;;8.33;2.70;;;25.00;98.00;;;;;;5097526;28;20178;-74
2022/08/10 10:04:21;;;;;;;3.67;2.30;;;24.60;97.20;;;;;;5097808;28;20641;-71
2022/08/10 10:06:54;;;;;;;2.80;2.33;;;-40.00;64.40;;;;;;5097636;28;20562;-74
2022/08/10 10:09:58;;;;;;;3.17;2.33;;;-40.00;61.90;;;;;;5097934;28;20263;-73
2022/08/10 10:12:53;;;;;;;3.93;3.03;;;-40.00;60.20;;;;;;5097596;28;20261;-74
2022/08/10 10:15:53;;;;;;;6.30;2.60;;;-40.00;59.10;;;;;;5097446;28;20188;-79
2022/08/10 10:18:23;;;;;;;2.80;2.60;;;-40.00;58.50;;;;;;5097521;28;20163;-75
2022/08/10 10:21:13;;;;;;;4.30;3.30;;;-40.00;56.70;;;;;;5097603;28;20466;-73
2022/08/10 10:24:14;;;;;;;2.17;2.00;;;19.10;90.70;;;;;;5096178;28;20252;-71
2022/08/10 10:26:49;;;;;;;10.87;2.47;;;26.90;93.20;;;;;;5096103;28;20206;-76
2022/08/10 10:29:42;;;;;;;5.10;3.10;;;27.00;93.30;;;;;;5076692;28;20179;-74
2022/08/10 10:32:16;;;;;;;3.50;2.57;;;26.90;93.50;;;;;;5076811;28;20218;-75
2022/08/10 10:35:01;;;;;;;5.90;2.47;;;26.80;93.70;;;;;;5076571;28;20171;-73
2022/08/10 10:37:30;;;;;;;8.83;3.07;;;27.40;93.60;;;;;;5076877;28;20163;-74
2022/08/10 10:39:58;;;;;;;3.33;3.03;;;27.50;92.80;;;;;;5076704;28;20160;-71
2022/08/10 10:42:45;;;;;;;3.00;2.80;;;27.50;93.20;;;;;;5076600;28;20172;-72
2022/08/10 10:45:53;;;;;;;4.13;2.27;;;27.30;93.40;;;;;;5076963;28;20167;-70
2022/08/10 10:48:38;;;;;;;3.00;2.67;;;26.80;93.30;;;;;;5066214;28;20271;-70
2022/08/10 10:51:29;;;;;;;2.70;2.60;;;27.90;92.00;;;;;;5076675;28;20443;-71
2022/08/10 10:54:05;;;;;;;4.00;2.60;;;27.90;92.40;;;;;;5076310;28;20171;-70
2022/08/10 10:56:34;;;;;;;3.33;2.20;;;28.10;92.00;;;;;;5076633;28;20224;-70
2022/08/10 10:59:08;;;;;;;4.33;2.97;;;28.20;90.70;;;;;;5093066;28;20194;-71
2022/08/10 11:01:48;;;;;;;2.80;2.60;;;26.10;89.70;;;;;;5096560;28;20170;-74
2022/08/10 11:04:23;;;;;;;5.53;2.90;;;28.50;90.40;;;;;;5096515;28;20577;-76
2022/08/10 11:06:56;;;;;;;5.53;3.20;;;28.50;90.30;;;;;;5096679;28;20170;-70
2022/08/10 11:09:33;;;;;;;2.70;2.50;;;28.00;89.40;;;;;;5096602;28;20166;-71
2022/08/10 11:12:18;;;;;;;3.63;2.70;;;-40.00;47.90;;;;;;5096125;28;20234;-72
2022/08/10 11:14:54;;;;;;;8.10;3.13;;;-40.00;48.10;;;;;;5095444;28;20189;-74
2022/08/10 11:17:35;;;;;;;3.23;2.90;;;-40.00;47.60;;;;;;5095340;28;20629;-71
2022/08/10 11:20:17;;;;;;;5.40;3.00;;;-40.00;47.00;;;;;;5096072;28;20174;-72
2022/08/10 11:23:04;;;;;;;4.43;2.33;;;-40.00;48.40;;;;;;5096252;28;20169;-72
2022/08/10 11:25:32;;;;;;;3.67;2.40;;;-40.00;45.00;;;;;;5096279;28;20167;-69
2022/08/10 11:28:10;;;;;;;3.47;2.13;;;-40.00;46.40;;;;;;5095371;28;20261;-69
2022/08/10 11:30:42;;;;;;;4.77;2.40;;;-40.00;44.50;;;;;;5095255;28;20230;-72
2022/08/10 11:33:14;;;;;;;7.67;3.20;;;-40.00;44.70;;;;;;5095848;28;20167;-73
2022/08/10 11:35:48;;;;;;;6.83;2.87;;;-40.00;43.10;;;;;;5096230;28;20174;-68
2022/08/10 11:38:21;;;;;;;5.45;2.42;;;-40.00;40.90;;;;;;5096038;28;20510;-73
2022/08/10 11:40:54;;;;;;;4.18;2.10;;;-40.00;41.50;;;;;;5095886;28;20252;-71
2022/08/10 11:43:25;;;;;;;5.97;2.63;;;-40.00;40.80;;;;;;5096031;28;20316;-71
2022/08/10 11:46:12;;;;;;;6.40;3.08;;;22.60;70.10;;;;;;5094644;28;20618;-70
2022/08/10 11:49:07;;;;;;;6.43;3.78;;;31.40;79.20;;;;;;5096065;28;20174;-70
2022/08/10 11:51:52;;;;;;;2.67;2.35;;;31.10;77.70;;;;;;5095575;28;20695;-72
2022/08/10 11:54:35;;;;;;;2.30;2.20;;;-40.00;36.30;;;;;;5095840;28;20224;-70
2022/08/10 11:57:01;;;;;;;6.18;2.25;;;-40.00;35.00;;;;;;5095479;28;20273;-74
2022/08/10 12:02:20;;;;;;;5.80;3.17;;;-40.00;31.50;;;;;;5095957;28;20178;-71
2022/08/10 12:04:52;;;;;;;2.80;2.50;;;-40.00;31.90;;;;;;5095803;28;20170;-72
2022/08/10 12:07:20;;;;;;;5.78;2.15;;;-40.00;30.30;;;;;;5095663;28;20182;-73
2022/08/10 12:09:48;;;;;;;4.13;2.53;;;-40.00;28.00;;;;;;5095069;28;20258;-75
2022/08/10 12:12:16;;;;;;;3.38;2.47;;;-40.00;27.80;;;;;;5095648;28;20597;-75
2022/08/10 12:15:02;;;;;;;3.00;2.78;;;-40.00;26.20;;;;;;5095046;28;20208;-77
2022/08/10 12:17:37;;;;;;;2.20;2.00;;;-22.30;30.90;;;;;;5095993;28;20174;-76
2022/08/10 12:20:08;;;;;;;3.45;2.47;;;-17.50;31.90;;;;;;5095411;28;20168;-76
2022/08/10 12:23:11;;;;;;;10.38;2.65;;;-5.40;37.00;;;;;;5095644;28;20170;-76
2022/08/10 12:26:06;;;;;;;2.33;2.03;;;-0.20;38.50;;;;;;5095326;28;20162;-76
2022/08/10 12:28:43;;;;;;;2.35;2.20;;;1.20;39.40;;;;;;5095098;28;20175;-75
2022/08/10 12:31:12;;;;;;;4.45;3.05;;;2.80;37.30;;;;;;5094249;28;20347;-77
2022/08/10 12:34:21;;;;;;;4.50;2.40;;;10.00;41.80;;;;;;5094320;28;20625;-79
2022/08/10 12:37:13;;;;;;;4.18;2.20;;;10.00;40.50;;;;;;5080910;28;20197;-76
2022/08/10 12:40:27;;;;;;;4.65;3.28;;;11.00;39.80;;;;;;5091383;28;20248;-74
2022/08/10 12:43:11;;;;;;;4.13;2.55;;;12.80;39.40;;;;;;5081308;28;20182;-78
2022/08/10 12:46:13;;;;;;;2.88;2.58;;;16.50;40.10;;;;;;5095275;28;20470;-75
2022/08/10 12:49:01;;;;;;;3.72;2.75;;;19.90;39.70;;;;;;5095478;28;20162;-76
2022/08/10 12:51:30;;;;;;;2.58;2.47;;;19.30;41.00;;;;;;5095077;28;20612;-75
2022/08/10 12:54:16;;;;;;;2.63;2.40;;;20.60;41.30;;;;;;5094980;28;20163;-78
2022/08/10 12:56:50;;;;;;;3.75;2.25;;;22.00;39.90;;;;;;5094215;28;20167;-76
2022/08/10 12:59:19;;;;;;;2.63;2.45;;;23.30;39.10;;;;;;5080622;28;20612;-76
2022/08/10 13:01:52;;;;;;;2.88;2.78;;;24.50;40.00;;;;;;5074954;28;20171;-75
2022/08/10 13:04:33;;;;;;;3.53;2.95;;;25.60;40.20;;;;;;5075118;28;20179;-76
2022/08/10 13:07:01;;;;;;;5.47;2.70;;;27.10;39.70;;;;;;5074984;28;20203;-76
2022/08/10 13:09:29;;;;;;;3.35;2.47;;;27.80;39.00;;;;;;5073672;28;20202;-77
2022/08/10 13:12:16;;;;;;;3.97;2.60;;;27.70;38.40;;;;;;5074782;28;20249;-75
2022/08/10 13:14:47;;;;;;;2.90;2.47;;;37.30;45.40;;;;;;5075118;28;20565;-77
2022/08/10 13:17:18;;;;;;;2.60;2.42;;;29.10;39.50;;;;;;5073642;28;20746;-76
2022/08/10 13:19:46;;;;;;;2.47;2.38;;;29.50;41.10;;;;;;5073778;28;20168;-77
2022/08/10 13:22:13;;;;;;;3.25;2.63;;;30.50;38.60;;;;;;5074509;28;20530;-77
2022/08/10 13:24:44;;;;;;;2.40;2.30;;;30.70;40.60;;;;;;5074630;28;20228;-77
2022/08/10 13:27:13;;;;;;;3.33;3.05;;;39.30;45.10;;;;;;5077351;28;20174;-77